»·PEaware :: AAL250 KBOI-KSLC

AAL250 :: KBOI-KSLC

FLIGHT INFORMATION

Flight Status: Arrived
Operator:
American Airlines
More flights by this operator :: More flights under this callsign
Pilot: Sergei F. (8485)
Aircraft: BOEING 737-300
(B733)
More flights by this aircraft type
Origin: KBOI Boise Air Terminal/Gowen
United States
Destination: KSLC Salt Lake City Intl
United States
More flights between these airports :: More routes between these airports
Route: BOI3 ROARR BYI SKEES5
File this flight plan on PilotEdge
Remarks:
Altitude:
(Current/Filed)
23,000ft
Speed:
(Current/Filed)
300kts
Departed: 06-Jul-18 06:00 PM
Arrived: 06-Jul-18 07:03 PM
Distance/Time
Traveled:
252nm/1:03
Distance/Time
To Go:
Arrived

Flight Plot

Page will automatically refresh every two minutes.

Flight plan parsing failed; only flown route is shown


Map Options




Map Legend


Flown Route
Filed Route
Departure Airport
Arrival Airport
Navaid (VOR, NDB)
Fix

Horizontal Profiles

Position Reports

Time Latitude Longitude Heading Altitude Ground
Speed
06-Jul-18 17:22 43.567011 -116.219741 30 2851ft 0kts
06-Jul-18 17:23 43.567011 -116.219741 30 2851ft 0kts
06-Jul-18 17:24 43.567011 -116.219741 30 2851ft 0kts
06-Jul-18 17:25 43.567011 -116.219741 30 2851ft 0kts
06-Jul-18 17:26 43.567011 -116.219741 30 2851ft 0kts
06-Jul-18 17:27 43.567011 -116.219741 30 2851ft 0kts
06-Jul-18 17:28 43.567011 -116.219741 30 2851ft 0kts
06-Jul-18 17:30 43.567011 -116.219741 30 2851ft 0kts
06-Jul-18 17:31 43.567011 -116.219741 30 2851ft 0kts
06-Jul-18 17:32 43.567011 -116.219741 30 2851ft 0kts
06-Jul-18 17:33 43.567011 -116.219741 30 2851ft 0kts
06-Jul-18 17:34 43.567011 -116.219741 30 2851ft 0kts
06-Jul-18 17:35 43.567011 -116.219741 30 2851ft 0kts
06-Jul-18 17:36 43.567011 -116.219741 30 2851ft 0kts
06-Jul-18 17:37 43.567011 -116.219741 30 2851ft 0kts
06-Jul-18 17:38 43.567011 -116.219741 30 2851ft 0kts
06-Jul-18 17:39 43.567011 -116.219741 30 2851ft 0kts
06-Jul-18 17:40 43.567011 -116.219741 30 2851ft 0kts
06-Jul-18 17:41 43.567011 -116.219741 30 2851ft 0kts
06-Jul-18 17:42 43.567011 -116.219741 30 2851ft 0kts
06-Jul-18 17:43 43.567011 -116.219741 30 2851ft 0kts
06-Jul-18 17:44 43.567011 -116.219741 30 2851ft 0kts
06-Jul-18 17:45 43.567011 -116.219741 30 2851ft 0kts
06-Jul-18 17:46 43.566618 -116.220062 29 2852ft 2kts
06-Jul-18 17:47 43.566557 -116.220807 66 2852ft 2kts
06-Jul-18 17:48 43.566241 -116.221481 94 2852ft 2kts
06-Jul-18 17:49 43.566298 -116.221728 115 2851ft 0kts
06-Jul-18 17:50 43.566298 -116.221728 115 2851ft 0kts
06-Jul-18 17:51 43.566298 -116.221728 115 2851ft 0kts
06-Jul-18 17:52 43.566298 -116.221728 115 2851ft 0kts
06-Jul-18 17:53 43.566230 -116.221534 116 2852ft 4kts
06-Jul-18 17:54 43.565142 -116.218367 115 2855ft 10kts
06-Jul-18 17:55 43.563629 -116.213934 115 2860ft 12kts
06-Jul-18 17:56 43.561889 -116.208825 115 2864ft 15kts
06-Jul-18 17:57 43.560071 -116.203496 115 2871ft 11kts
06-Jul-18 17:58 43.559465 -116.202101 156 2871ft 0kts
06-Jul-18 17:59 43.559465 -116.202101 156 2871ft 0kts
06-Jul-18 18:00 43.558640 -116.202474 219 2870ft 6kts
06-Jul-18 18:01 43.561038 -116.209877 296 2861ft 86kts
06-Jul-18 18:02 43.575836 -116.257414 290 3543ft 143kts
06-Jul-18 18:03 43.590145 -116.312533 290 4430ft 174kts
06-Jul-18 18:04 43.575626 -116.369341 175 6278ft 232kts
06-Jul-18 18:05 43.540705 -116.295413 110 8497ft 274kts
06-Jul-18 18:06 43.513719 -116.192952 111 10845ft 310kts
06-Jul-18 18:07 43.481091 -116.069730 110 12170ft 370kts
06-Jul-18 18:08 43.444728 -115.933233 111 14386ft 396kts
06-Jul-18 18:09 43.407186 -115.792958 113 17444ft 390kts
06-Jul-18 18:10 43.369680 -115.653631 114 20153ft 389kts
06-Jul-18 18:11 43.332094 -115.514809 115 22633ft 387kts
06-Jul-18 18:12 43.294154 -115.376752 117 23137ft 401kts
06-Jul-18 18:13 43.234582 -115.244830 128 23160ft 416kts
06-Jul-18 18:14 43.172775 -115.111644 128 23170ft 415kts
06-Jul-18 18:15 43.110576 -114.978033 128 23201ft 416kts
06-Jul-18 18:16 43.048177 -114.844571 128 23217ft 416kts
06-Jul-18 18:17 42.985986 -114.712146 127 23213ft 417kts
06-Jul-18 18:18 42.927434 -114.588236 127 23213ft 417kts
06-Jul-18 18:19 42.867905 -114.463239 127 23213ft 417kts
06-Jul-18 18:20 42.804833 -114.331166 127 23189ft 418kts
06-Jul-18 18:21 42.741856 -114.199422 127 23214ft 417kts
06-Jul-18 18:22 42.678412 -114.067525 127 23212ft 417kts
06-Jul-18 18:23 42.614986 -113.936250 127 23213ft 417kts
06-Jul-18 18:24 42.543919 -113.815564 141 23214ft 409kts
06-Jul-18 18:25 42.463402 -113.708691 140 23212ft 410kts
06-Jul-18 18:26 42.382205 -113.600304 140 23211ft 410kts
06-Jul-18 18:27 42.301248 -113.492637 140 23214ft 410kts
06-Jul-18 18:28 42.219893 -113.385217 140 23212ft 409kts
06-Jul-18 18:29 42.140312 -113.279918 140 23212ft 409kts
06-Jul-18 18:30 42.058968 -113.172764 140 23213ft 409kts
06-Jul-18 18:31 41.977793 -113.066275 140 22970ft 412kts
06-Jul-18 18:32 41.896394 -112.959884 139 21383ft 411kts
06-Jul-18 18:33 41.814563 -112.853617 139 19783ft 415kts
06-Jul-18 18:34 41.733270 -112.748548 139 18234ft 418kts
06-Jul-18 18:35 41.649898 -112.641529 138 16659ft 421kts
06-Jul-18 18:36 41.568966 -112.537268 138 16026ft 384kts
06-Jul-18 18:37 41.487005 -112.448043 147 14945ft 371kts
06-Jul-18 18:38 41.420688 -112.354485 134 13825ft 334kts
06-Jul-18 18:39 41.365008 -112.271816 135 13009ft 291kts
06-Jul-18 18:40 41.313402 -112.195779 135 13066ft 262kts
06-Jul-18 18:41 41.264725 -112.124810 135 12317ft 258kts
06-Jul-18 18:42 41.216984 -112.055272 135 11349ft 247kts
06-Jul-18 18:43 41.159897 -112.013964 174 11050ft 237kts
06-Jul-18 18:44 41.093741 -112.009419 180 10114ft 241kts
06-Jul-18 18:45 41.028600 -112.003103 176 8664ft 226kts
06-Jul-18 18:46 40.968517 -111.995746 176 7428ft 202kts
06-Jul-18 18:47 40.916295 -111.989543 177 6407ft 171kts
06-Jul-18 18:48 40.872729 -111.984505 177 5547ft 161kts
06-Jul-18 18:49 40.827957 -111.978910 178 4717ft 162kts
06-Jul-18 18:50 40.782640 -111.974243 178 4754ft 174kts
06-Jul-18 18:51 40.756471 -112.003363 299 5609ft 174kts
06-Jul-18 18:52 40.783817 -112.063415 300 7061ft 219kts
06-Jul-18 18:53 40.833511 -112.105219 350 8049ft 234kts
06-Jul-18 18:54 40.896680 -112.115837 350 8032ft 231kts
06-Jul-18 18:55 40.960658 -112.126937 350 8050ft 237kts
06-Jul-18 18:56 41.026497 -112.138205 355 8070ft 238kts
06-Jul-18 18:57 41.052721 -112.077027 91 8103ft 212kts
06-Jul-18 18:58 41.035033 -112.011103 150 8190ft 184kts
06-Jul-18 18:59 40.990398 -111.996047 179 7998ft 163kts
06-Jul-18 19:00 40.945551 -111.993151 177 6974ft 160kts
06-Jul-18 19:01 40.900981 -111.987641 176 6104ft 161kts
06-Jul-18 19:02 40.856096 -111.982408 177 5198ft 162kts
06-Jul-18 19:03 40.812191 -111.977440 177 4345ft 157kts
06-Jul-18 19:04 40.791208 -111.975885 202 4223ft 18kts
06-Jul-18 19:05 40.789202 -111.977022 197 4223ft 2kts
06-Jul-18 19:06 40.788846 -111.977978 253 4223ft 0kts
06-Jul-18 19:06 40.788846 -111.977978 253 4223ft 0kts

Navigation Log

Ident Type
Flight plan parsing failed, navigation log unavailable